Terminal Aerodrome Forecast
Issued by NWS

Home | Current Version | Previous Version | Text Only | Print | Product List | Glossary On
Versions: 1 2 3 4 5 6 7 8 9 10 11 12 13 14 15 16 17 18 19 20 21 22 23 24 25 26
000
FTUS41 KOKX 041742
TAFTEB
TAF
KTEB 041742Z 0418/0518 19012G20KT P6SM SCT100
     FM050000 21011KT P6SM FEW100
     FM050400 20008KT P6SM FEW070 SCT250
     FM050700 21004KT P6SM FEW070 SCT250
     FM051300 29005KT P6SM SCT070 SCT150
     FM051500 30005KT P6SM VCSH SCT045 SCT100 PROB30 0515/0518 4SM
      -SHRA BKN045=

USA.gov is the U.S. government's official web portal to all federal, state and local government web resources and services.